Terminal Aerodrome Forecast
Issued by NWS Sterling, VA

Current Version | Previous Version | Graphics & Text | Print | Product List | Glossary On
Versions: 1 2 3 4 5 6 7 8 9 10 11 12 13 14 15 16 17 18 19 20
791
FTUS41 KLWX 172334
TAFMRB
TAF
KMRB 172334Z 1800/1824 00000KT P6SM FEW130 SCT250
     FM180900 17004KT P6SM SCT150 BKN250 WS020/21035KT
     FM181300 18008KT P6SM OVC130
     FM181400 17009KT P6SM -SHRA OVC100
     FM181800 18010KT 5SM -SHRA BR OVC025
     FM182100 18011G18KT P6SM SCT040 OVC070=

USA.gov is the U.S. government's official web portal to all federal, state and local government web resources and services.